TimeCST,TemperatureF,Dew PointF,Humidity,Sea Level PressureIn,VisibilityMPH,Wind Direction,Wind SpeedMPH,Gust SpeedMPH,PrecipitationIn,Events,Conditions,WindDirDegrees,DateUTC
12:54 AM,30.0,23.0,75,30.26,10.0,Calm,Calm,-,N/A,,Clear,0,2013-01-20 06:54:00
1:54 AM,30.0,21.9,72,30.27,10.0,NNW,4.6,-,N/A,,Clear,340,2013-01-20 07:54:00
2:54 AM,30.9,23.0,72,30.28,10.0,Calm,Calm,-,N/A,,Clear,0,2013-01-20 08:54:00
3:54 AM,27.0,19.9,75,30.28,10.0,Calm,Calm,-,N/A,,Clear,0,2013-01-20 09:54:00
4:54 AM,35.1,27.0,72,30.26,10.0,ENE,4.6,-,N/A,,Clear,70,2013-01-20 10:54:00
5:54 AM,30.0,24.1,79,30.27,10.0,Calm,Calm,-,N/A,,Clear,0,2013-01-20 11:54:00
6:54 AM,32.0,25.0,75,30.28,10.0,Calm,Calm,-,N/A,,Clear,0,2013-01-20 12:54:00
7:54 AM,34.0,26.1,73,30.29,10.0,East,5.8,-,N/A,,Clear,80,2013-01-20 13:54:00
8:54 AM,35.1,26.1,70,30.28,10.0,East,8.1,-,N/A,,Clear,100,2013-01-20 14:54:00
9:54 AM,39.9,26.1,58,30.28,10.0,East,13.8,-,N/A,,Clear,100,2013-01-20 15:54:00
10:54 AM,45.0,25.0,46,30.27,10.0,SE,13.8,-,N/A,,Clear,130,2013-01-20 16:54:00
11:54 AM,48.9,27.0,43,30.24,10.0,ESE,9.2,-,N/A,,Clear,120,2013-01-20 17:54:00
12:54 PM,52.0,27.0,38,30.20,10.0,ESE,8.1,-,N/A,,Clear,110,2013-01-20 18:54:00
1:54 PM,55.9,27.0,33,30.18,10.0,Calm,Calm,-,N/A,,Clear,0,2013-01-20 19:54:00
2:54 PM,57.0,27.0,32,30.17,10.0,Variable,5.8,-,N/A,,Clear,0,2013-01-20 20:54:00
3:54 PM,57.0,27.0,32,30.19,10.0,NE,4.6,-,N/A,,Clear,40,2013-01-20 21:54:00
4:54 PM,54.0,27.0,35,30.19,10.0,NE,8.1,-,N/A,,Clear,40,2013-01-20 22:54:00
5:54 PM,46.9,25.0,42,30.22,10.0,NNE,15.0,23.0,N/A,,Clear,30,2013-01-20 23:54:00
6:54 PM,43.0,21.0,42,30.26,10.0,NE,10.4,-,N/A,,Clear,40,2013-01-21 00:54:00
7:54 PM,36.0,15.1,43,30.32,10.0,NNE,16.1,-,N/A,,Clear,30,2013-01-21 01:54:00
8:54 PM,30.9,12.9,47,30.36,10.0,NNE,15.0,24.2,N/A,,Clear,20,2013-01-21 02:54:00
9:54 PM,28.9,12.0,49,30.38,10.0,NNE,15.0,-,N/A,,Clear,20,2013-01-21 03:54:00
10:54 PM,28.0,12.0,51,30.38,10.0,NNE,13.8,-,N/A,,Clear,30,2013-01-21 04:54:00
11:54 PM,28.0,10.9,49,30.39,10.0,NNE,9.2,-,N/A,,Clear,30,2013-01-21 05:54:00